sensor_id;sensor_type;location;lat;lon;timestamp;P1;durP1;ratioP1;P2;durP2;ratioP2
31596;SDS011;18201;50.978;7.034;2022-12-15T09:00:33;111.28;;;53.15;;
31596;SDS011;18201;50.978;7.034;2022-12-15T09:01:06;112.95;;;54.47;;
31596;SDS011;18201;50.978;7.034;2022-12-15T09:01:40;109.70;;;54.50;;
31596;SDS011;18201;50.978;7.034;2022-12-15T09:02:12;107.20;;;57.28;;
31596;SDS011;18201;50.978;7.034;2022-12-15T09:54:20;94.65;;;48.72;;
31596;SDS011;18201;50.978;7.034;2022-12-15T09:54:55;96.25;;;50.42;;
31596;SDS011;18201;50.978;7.034;2022-12-15T09:55:27;93.70;;;51.60;;
31596;SDS011;18201;50.978;7.034;2022-12-15T09:56:04;96.72;;;53.60;;
31596;SDS011;18201;50.978;7.034;2022-12-15T09:56:41;95.72;;;56.45;;
31596;SDS011;18201;50.978;7.034;2022-12-15T09:57:19;99.35;;;52.70;;
31596;SDS011;18201;50.978;7.034;2022-12-15T09:57:56;97.53;;;56.20;;
31596;SDS011;18201;50.978;7.034;2022-12-15T09:58:33;94.53;;;53.63;;
31596;SDS011;18201;50.978;7.034;2022-12-15T09:59:14;101.05;;;54.85;;
31596;SDS011;18201;50.978;7.034;2022-12-15T10:00:01;96.07;;;52.00;;
31596;SDS011;18201;50.978;7.034;2022-12-15T10:00:45;92.20;;;52.92;;
31596;SDS011;18201;50.978;7.034;2022-12-15T10:02:05;95.25;;;51.15;;
31596;SDS011;18201;50.978;7.034;2022-12-15T10:03:08;87.28;;;48.72;;
31596;SDS011;18201;50.978;7.034;2022-12-15T10:03:57;86.75;;;48.70;;
31596;SDS011;18201;50.978;7.034;2022-12-15T10:04:36;95.28;;;50.65;;
31596;SDS011;18201;50.978;7.034;2022-12-15T10:05:26;96.97;;;53.28;;
31596;SDS011;18201;50.978;7.034;2022-12-15T10:06:07;94.28;;;52.85;;
31596;SDS011;18201;50.978;7.034;2022-12-15T10:06:42;92.45;;;52.45;;
31596;SDS011;18201;50.978;7.034;2022-12-15T10:07:19;84.35;;;49.95;;
31596;SDS011;18201;50.978;7.034;2022-12-15T10:07:58;94.15;;;53.35;;
31596;SDS011;18201;50.978;7.034;2022-12-15T10:08:31;91.93;;;53.40;;
31596;SDS011;18201;50.978;7.034;2022-12-15T10:09:15;93.70;;;53.15;;
31596;SDS011;18201;50.978;7.034;2022-12-15T10:09:49;87.30;;;53.45;;
31596;SDS011;18201;50.978;7.034;2022-12-15T10:10:21;89.15;;;54.10;;
31596;SDS011;18201;50.978;7.034;2022-12-15T10:10:59;86.20;;;51.97;;
31596;SDS011;18201;50.978;7.034;2022-12-15T10:11:43;90.10;;;51.63;;
31596;SDS011;18201;50.978;7.034;2022-12-15T10:12:19;94.78;;;55.72;;
31596;SDS011;18201;50.978;7.034;2022-12-15T10:12:56;92.25;;;54.00;;
31596;SDS011;18201;50.978;7.034;2022-12-15T10:13:34;100.93;;;57.20;;
31596;SDS011;18201;50.978;7.034;2022-12-15T10:14:14;91.88;;;52.15;;
31596;SDS011;18201;50.978;7.034;2022-12-15T10:14:53;98.90;;;56.47;;
31596;SDS011;18201;50.978;7.034;2022-12-15T10:15:37;89.10;;;52.25;;
31596;SDS011;18201;50.978;7.034;2022-12-15T10:16:16;89.78;;;52.55;;
31596;SDS011;18201;50.978;7.034;2022-12-15T10:16:56;86.50;;;53.50;;
31596;SDS011;18201;50.978;7.034;2022-12-15T10:17:33;92.03;;;54.85;;
31596;SDS011;18201;50.978;7.034;2022-12-15T10:18:16;87.05;;;50.95;;
31596;SDS011;18201;50.978;7.034;2022-12-15T10:44:23;75.60;;;41.00;;
31596;SDS011;18201;50.978;7.034;2022-12-15T10:44:56;77.15;;;43.50;;
31596;SDS011;18201;50.978;7.034;2022-12-15T10:45:29;78.88;;;44.85;;
31596;SDS011;18201;50.978;7.034;2022-12-15T10:46:10;74.60;;;43.67;;
31596;SDS011;18201;50.978;7.034;2022-12-15T10:46:42;77.13;;;47.00;;
31596;SDS011;18201;50.978;7.034;2022-12-15T10:47:19;79.97;;;48.58;;
31596;SDS011;18201;50.978;7.034;2022-12-15T10:47:56;80.78;;;48.85;;
31596;SDS011;18201;50.978;7.034;2022-12-15T10:48:31;73.22;;;46.55;;
31596;SDS011;18201;50.978;7.034;2022-12-15T10:49:53;77.45;;;47.38;;
31596;SDS011;18201;50.978;7.034;2022-12-15T10:50:25;81.85;;;48.85;;
31596;SDS011;18201;50.978;7.034;2022-12-15T10:51:06;75.93;;;46.15;;
31596;SDS011;18201;50.978;7.034;2022-12-15T10:51:44;75.13;;;45.75;;
31596;SDS011;18201;50.978;7.034;2022-12-15T10:52:22;79.03;;;47.22;;
31596;SDS011;18201;50.978;7.034;2022-12-15T10:52:56;79.53;;;46.95;;
31596;SDS011;18201;50.978;7.034;2022-12-15T10:53:33;72.82;;;45.17;;
31596;SDS011;18201;50.978;7.034;2022-12-15T10:54:10;75.88;;;45.50;;
31596;SDS011;18201;50.978;7.034;2022-12-15T10:54:44;72.97;;;42.85;;
31596;SDS011;18201;50.978;7.034;2022-12-15T10:55:27;71.07;;;44.78;;
31596;SDS011;18201;50.978;7.034;2022-12-15T10:56:03;71.40;;;44.90;;
31596;SDS011;18201;50.978;7.034;2022-12-15T10:56:46;74.53;;;44.90;;
31596;SDS011;18201;50.978;7.034;2022-12-15T10:57:20;69.07;;;45.13;;
31596;SDS011;18201;50.978;7.034;2022-12-15T10:57:56;71.93;;;44.60;;
31596;SDS011;18201;50.978;7.034;2022-12-15T10:58:29;67.75;;;43.75;;
31596;SDS011;18201;50.978;7.034;2022-12-15T10:59:02;69.90;;;43.42;;
31596;SDS011;18201;50.978;7.034;2022-12-15T10:59:52;69.78;;;43.22;;
31596;SDS011;18201;50.978;7.034;2022-12-15T11:00:29;71.43;;;43.50;;
31596;SDS011;18201;50.978;7.034;2022-12-15T11:01:06;72.05;;;45.60;;
31596;SDS011;18201;50.978;7.034;2022-12-15T11:01:43;71.50;;;43.97;;
31596;SDS011;18201;50.978;7.034;2022-12-15T11:02:28;67.85;;;42.60;;
31596;SDS011;18201;50.978;7.034;2022-12-15T11:03:02;68.55;;;43.15;;
31596;SDS011;18201;50.978;7.034;2022-12-15T11:03:51;71.85;;;44.80;;
31596;SDS011;18201;50.978;7.034;2022-12-15T11:04:25;68.88;;;43.65;;
31596;SDS011;18201;50.978;7.034;2022-12-15T11:04:58;69.38;;;44.30;;
31596;SDS011;18201;50.978;7.034;2022-12-15T11:05:30;72.60;;;45.95;;
31596;SDS011;18201;50.978;7.034;2022-12-15T11:06:02;70.30;;;42.88;;
31596;SDS011;18201;50.978;7.034;2022-12-15T11:06:43;65.38;;;43.50;;
31596;SDS011;18201;50.978;7.034;2022-12-15T11:07:15;68.07;;;45.05;;
31596;SDS011;18201;50.978;7.034;2022-12-15T11:07:47;69.32;;;44.53;;
31596;SDS011;18201;50.978;7.034;2022-12-15T11:08:21;63.05;;;42.40;;
31596;SDS011;18201;50.978;7.034;2022-12-15T11:08:53;67.85;;;45.45;;
31596;SDS011;18201;50.978;7.034;2022-12-15T11:09:27;66.80;;;44.47;;
31596;SDS011;18201;50.978;7.034;2022-12-15T11:10:14;70.68;;;42.20;;
31596;SDS011;18201;50.978;7.034;2022-12-15T11:10:48;66.13;;;42.75;;
31596;SDS011;18201;50.978;7.034;2022-12-15T11:11:44;71.55;;;44.08;;
31596;SDS011;18201;50.978;7.034;2022-12-15T11:12:35;71.55;;;42.78;;
31596;SDS011;18201;50.978;7.034;2022-12-15T11:13:22;66.65;;;40.72;;
31596;SDS011;18201;50.978;7.034;2022-12-15T11:14:02;69.15;;;42.75;;
31596;SDS011;18201;50.978;7.034;2022-12-15T11:14:41;68.63;;;42.63;;
31596;SDS011;18201;50.978;7.034;2022-12-15T11:16:22;66.80;;;41.92;;
31596;SDS011;18201;50.978;7.034;2022-12-15T11:16:53;67.15;;;42.70;;
31596;SDS011;18201;50.978;7.034;2022-12-15T11:17:33;63.28;;;41.67;;
31596;SDS011;18201;50.978;7.034;2022-12-15T11:18:10;71.05;;;42.53;;
31596;SDS011;18201;50.978;7.034;2022-12-15T11:19:01;69.97;;;43.20;;
31596;SDS011;18201;50.978;7.034;2022-12-15T11:19:39;67.75;;;42.30;;
31596;SDS011;18201;50.978;7.034;2022-12-15T11:20:19;65.03;;;41.17;;
31596;SDS011;18201;50.978;7.034;2022-12-15T11:20:56;61.70;;;39.67;;
31596;SDS011;18201;50.978;7.034;2022-12-15T11:21:33;67.85;;;41.05;;
31596;SDS011;18201;50.978;7.034;2022-12-15T11:22:08;64.80;;;42.78;;
31596;SDS011;18201;50.978;7.034;2022-12-15T11:22:47;66.43;;;41.80;;
31596;SDS011;18201;50.978;7.034;2022-12-15T11:23:25;64.07;;;41.10;;
31596;SDS011;18201;50.978;7.034;2022-12-15T11:24:01;64.93;;;42.33;;
31596;SDS011;18201;50.978;7.034;2022-12-15T11:24:39;69.63;;;42.05;;
31596;SDS011;18201;50.978;7.034;2022-12-15T11:25:15;63.35;;;41.38;;
31596;SDS011;18201;50.978;7.034;2022-12-15T11:25:54;67.43;;;42.10;;
31596;SDS011;18201;50.978;7.034;2022-12-15T11:26:34;68.47;;;42.83;;
31596;SDS011;18201;50.978;7.034;2022-12-15T11:27:15;67.15;;;41.90;;
31596;SDS011;18201;50.978;7.034;2022-12-15T11:27:53;68.55;;;41.90;;
31596;SDS011;18201;50.978;7.034;2022-12-15T11:28:28;64.22;;;42.05;;
31596;SDS011;18201;50.978;7.034;2022-12-15T11:29:09;68.25;;;41.78;;
31596;SDS011;18201;50.978;7.034;2022-12-15T11:29:53;69.20;;;42.00;;
31596;SDS011;18201;50.978;7.034;2022-12-15T11:30:30;69.00;;;43.85;;
31596;SDS011;18201;50.978;7.034;2022-12-15T11:31:11;65.13;;;40.75;;
31596;SDS011;18201;50.978;7.034;2022-12-15T11:31:50;69.70;;;42.28;;
31596;SDS011;18201;50.978;7.034;2022-12-15T11:32:24;64.47;;;40.70;;
31596;SDS011;18201;50.978;7.034;2022-12-15T11:32:57;62.50;;;39.65;;
31596;SDS011;18201;50.978;7.034;2022-12-15T11:33:31;68.40;;;43.55;;
31596;SDS011;18201;50.978;7.034;2022-12-15T11:34:02;72.22;;;44.35;;
31596;SDS011;18201;50.978;7.034;2022-12-15T11:34:34;66.72;;;43.65;;
31596;SDS011;18201;50.978;7.034;2022-12-15T11:35:10;64.20;;;42.25;;
31596;SDS011;18201;50.978;7.034;2022-12-15T11:35:47;67.15;;;43.03;;
31596;SDS011;18201;50.978;7.034;2022-12-15T11:36:38;67.35;;;44.05;;
31596;SDS011;18201;50.978;7.034;2022-12-15T11:38:12;61.88;;;38.78;;
31596;SDS011;18201;50.978;7.034;2022-12-15T11:38:51;64.13;;;39.70;;
31596;SDS011;18201;50.978;7.034;2022-12-15T11:39:32;61.20;;;39.20;;
31596;SDS011;18201;50.978;7.034;2022-12-15T11:40:14;59.45;;;38.67;;
31596;SDS011;18201;50.978;7.034;2022-12-15T11:40:51;63.03;;;40.28;;
31596;SDS011;18201;50.978;7.034;2022-12-15T11:41:28;61.05;;;40.28;;
31596;SDS011;18201;50.978;7.034;2022-12-15T11:42:08;59.58;;;39.50;;
31596;SDS011;18201;50.978;7.034;2022-12-15T11:42:52;59.28;;;39.90;;
31596;SDS011;18201;50.978;7.034;2022-12-15T11:43:40;61.72;;;38.88;;
31596;SDS011;18201;50.978;7.034;2022-12-15T11:44:23;65.35;;;39.85;;
31596;SDS011;18201;50.978;7.034;2022-12-15T11:45:00;63.35;;;39.45;;
31596;SDS011;18201;50.978;7.034;2022-12-15T11:45:39;60.53;;;39.97;;
31596;SDS011;18201;50.978;7.034;2022-12-15T11:46:19;41.72;;;29.00;;
31596;SDS011;18201;50.978;7.034;2022-12-15T11:46:54;61.65;;;39.60;;
31596;SDS011;18201;50.978;7.034;2022-12-15T11:47:37;60.15;;;39.72;;
31596;SDS011;18201;50.978;7.034;2022-12-15T11:48:14;57.83;;;38.30;;
31596;SDS011;18201;50.978;7.034;2022-12-15T11:48:53;61.13;;;39.90;;
31596;SDS011;18201;50.978;7.034;2022-12-15T11:49:48;56.38;;;36.58;;
31596;SDS011;18201;50.978;7.034;2022-12-15T11:50:28;64.22;;;40.45;;
31596;SDS011;18201;50.978;7.034;2022-12-15T11:51:02;63.35;;;41.08;;
31596;SDS011;18201;50.978;7.034;2022-12-15T11:51:38;60.50;;;38.97;;
31596;SDS011;18201;50.978;7.034;2022-12-15T11:52:16;63.55;;;41.72;;
31596;SDS011;18201;50.978;7.034;2022-12-15T11:53:08;66.55;;;40.75;;
31596;SDS011;18201;50.978;7.034;2022-12-15T11:53:50;58.55;;;38.25;;
31596;SDS011;18201;50.978;7.034;2022-12-15T11:54:37;63.85;;;40.17;;
31596;SDS011;18201;50.978;7.034;2022-12-15T11:55:15;65.47;;;40.38;;
31596;SDS011;18201;50.978;7.034;2022-12-15T11:55:52;64.43;;;39.90;;
31596;SDS011;18201;50.978;7.034;2022-12-15T11:56:29;63.08;;;39.72;;
31596;SDS011;18201;50.978;7.034;2022-12-15T11:57:09;61.50;;;40.03;;
31596;SDS011;18201;50.978;7.034;2022-12-15T11:57:56;65.95;;;41.90;;
31596;SDS011;18201;50.978;7.034;2022-12-15T11:58:46;63.83;;;40.88;;
31596;SDS011;18201;50.978;7.034;2022-12-15T12:00:31;68.03;;;41.58;;
31596;SDS011;18201;50.978;7.034;2022-12-15T12:01:09;63.95;;;41.17;;
31596;SDS011;18201;50.978;7.034;2022-12-15T12:01:54;68.15;;;42.67;;
31596;SDS011;18201;50.978;7.034;2022-12-15T12:02:54;65.68;;;41.08;;
31596;SDS011;18201;50.978;7.034;2022-12-15T12:03:46;65.43;;;39.55;;
31596;SDS011;18201;50.978;7.034;2022-12-15T12:04:27;66.82;;;40.63;;
31596;SDS011;18201;50.978;7.034;2022-12-15T12:05:03;63.00;;;39.47;;
31596;SDS011;18201;50.978;7.034;2022-12-15T12:05:51;61.85;;;39.03;;
31596;SDS011;18201;50.978;7.034;2022-12-15T12:06:31;63.30;;;40.08;;
31596;SDS011;18201;50.978;7.034;2022-12-15T12:07:10;62.08;;;39.17;;
31596;SDS011;18201;50.978;7.034;2022-12-15T12:07:51;57.55;;;38.75;;
31596;SDS011;18201;50.978;7.034;2022-12-15T12:08:31;63.88;;;39.67;;
31596;SDS011;18201;50.978;7.034;2022-12-15T12:09:21;63.47;;;39.80;;
31596;SDS011;18201;50.978;7.034;2022-12-15T12:10:02;65.97;;;42.35;;
31596;SDS011;18201;50.978;7.034;2022-12-15T12:10:45;64.43;;;40.95;;
31596;SDS011;18201;50.978;7.034;2022-12-15T12:11:24;64.85;;;40.05;;
31596;SDS011;18201;50.978;7.034;2022-12-15T12:12:00;60.28;;;40.35;;
31596;SDS011;18201;50.978;7.034;2022-12-15T12:12:42;65.50;;;41.22;;
31596;SDS011;18201;50.978;7.034;2022-12-15T12:13:22;62.22;;;40.70;;
31596;SDS011;18201;50.978;7.034;2022-12-15T12:14:05;62.65;;;40.88;;
31596;SDS011;18201;50.978;7.034;2022-12-15T12:14:48;56.40;;;37.85;;
31596;SDS011;18201;50.978;7.034;2022-12-15T12:15:31;61.03;;;39.38;;
31596;SDS011;18201;50.978;7.034;2022-12-15T12:16:10;58.35;;;38.47;;
31596;SDS011;18201;50.978;7.034;2022-12-15T12:17:00;57.55;;;37.92;;
31596;SDS011;18201;50.978;7.034;2022-12-15T12:17:37;58.58;;;39.72;;
31596;SDS011;18201;50.978;7.034;2022-12-15T12:18:14;59.17;;;39.33;;
31596;SDS011;18201;50.978;7.034;2022-12-15T12:18:51;51.22;;;35.45;;
31596;SDS011;18201;50.978;7.034;2022-12-15T12:19:30;49.25;;;35.22;;
31596;SDS011;18201;50.978;7.034;2022-12-15T12:20:07;52.00;;;35.50;;
31596;SDS011;18201;50.978;7.034;2022-12-15T12:20:46;47.00;;;31.88;;
31596;SDS011;18201;50.978;7.034;2022-12-15T12:21:21;48.15;;;34.90;;
31596;SDS011;18201;50.978;7.034;2022-12-15T12:21:59;52.72;;;34.80;;
31596;SDS011;18201;50.978;7.034;2022-12-15T12:22:36;47.53;;;34.63;;
31596;SDS011;18201;50.978;7.034;2022-12-15T12:23:14;43.78;;;31.90;;
31596;SDS011;18201;50.978;7.034;2022-12-15T12:23:50;42.80;;;32.25;;
31596;SDS011;18201;50.978;7.034;2022-12-15T12:24:28;43.15;;;31.80;;
31596;SDS011;18201;50.978;7.034;2022-12-15T12:25:03;43.50;;;30.77;;
31596;SDS011;18201;50.978;7.034;2022-12-15T12:25:43;40.00;;;30.63;;
31596;SDS011;18201;50.978;7.034;2022-12-15T12:26:21;39.95;;;30.23;;
31596;SDS011;18201;50.978;7.034;2022-12-15T12:26:59;38.90;;;30.35;;
31596;SDS011;18201;50.978;7.034;2022-12-15T12:27:35;41.05;;;29.45;;
31596;SDS011;18201;50.978;7.034;2022-12-15T12:28:19;34.80;;;27.10;;
31596;SDS011;18201;50.978;7.034;2022-12-15T12:28:57;42.30;;;30.20;;
31596;SDS011;18201;50.978;7.034;2022-12-15T12:29:34;38.13;;;29.13;;
31596;SDS011;18201;50.978;7.034;2022-12-15T12:30:11;35.88;;;29.08;;
31596;SDS011;18201;50.978;7.034;2022-12-15T12:30:45;36.63;;;29.65;;
31596;SDS011;18201;50.978;7.034;2022-12-15T12:31:20;39.00;;;29.83;;
31596;SDS011;18201;50.978;7.034;2022-12-15T12:31:56;34.40;;;28.33;;
31596;SDS011;18201;50.978;7.034;2022-12-15T12:32:37;37.50;;;29.38;;
31596;SDS011;18201;50.978;7.034;2022-12-15T12:33:15;33.55;;;28.13;;
31596;SDS011;18201;50.978;7.034;2022-12-15T12:33:57;38.05;;;30.00;;
31596;SDS011;18201;50.978;7.034;2022-12-15T12:34:34;35.45;;;29.30;;
31596;SDS011;18201;50.978;7.034;2022-12-15T12:35:18;38.20;;;30.83;;
31596;SDS011;18201;50.978;7.034;2022-12-15T12:35:55;37.25;;;28.88;;
31596;SDS011;18201;50.978;7.034;2022-12-15T12:36:33;40.15;;;30.40;;
31596;SDS011;18201;50.978;7.034;2022-12-15T12:37:08;43.17;;;30.80;;
31596;SDS011;18201;50.978;7.034;2022-12-15T12:37:50;39.13;;;30.08;;
31596;SDS011;18201;50.978;7.034;2022-12-15T12:38:32;41.88;;;31.10;;
31596;SDS011;18201;50.978;7.034;2022-12-15T12:39:08;38.42;;;30.33;;
31596;SDS011;18201;50.978;7.034;2022-12-15T12:39:47;41.22;;;30.08;;
31596;SDS011;18201;50.978;7.034;2022-12-15T12:40:21;42.17;;;31.35;;
31596;SDS011;18201;50.978;7.034;2022-12-15T12:41:00;41.25;;;31.02;;
31596;SDS011;18201;50.978;7.034;2022-12-15T12:41:35;39.03;;;30.80;;
31596;SDS011;18201;50.978;7.034;2022-12-15T12:42:13;40.08;;;29.70;;
31596;SDS011;18201;50.978;7.034;2022-12-15T12:42:49;40.88;;;32.20;;
31596;SDS011;18201;50.978;7.034;2022-12-15T12:43:29;38.45;;;30.00;;
31596;SDS011;18201;50.978;7.034;2022-12-15T12:44:03;42.92;;;32.08;;
31596;SDS011;18201;50.978;7.034;2022-12-15T12:44:40;38.80;;;31.63;;
31596;SDS011;18201;50.978;7.034;2022-12-15T12:45:11;40.47;;;31.13;;
31596;SDS011;18201;50.978;7.034;2022-12-15T12:45:46;37.40;;;29.95;;
31596;SDS011;18201;50.978;7.034;2022-12-15T12:46:23;37.88;;;29.33;;
31596;SDS011;18201;50.978;7.034;2022-12-15T12:46:59;40.42;;;31.10;;
31596;SDS011;18201;50.978;7.034;2022-12-15T12:47:43;41.25;;;30.35;;
31596;SDS011;18201;50.978;7.034;2022-12-15T12:48:20;38.55;;;30.23;;
31596;SDS011;18201;50.978;7.034;2022-12-15T12:48:56;41.10;;;32.13;;
31596;SDS011;18201;50.978;7.034;2022-12-15T12:49:35;39.67;;;30.52;;
31596;SDS011;18201;50.978;7.034;2022-12-15T12:50:13;42.80;;;32.00;;
31596;SDS011;18201;50.978;7.034;2022-12-15T12:50:47;41.88;;;30.67;;
31596;SDS011;18201;50.978;7.034;2022-12-15T12:51:21;43.17;;;32.08;;
31596;SDS011;18201;50.978;7.034;2022-12-15T12:51:57;44.33;;;35.22;;
31596;SDS011;18201;50.978;7.034;2022-12-15T12:52:30;46.67;;;35.58;;
31596;SDS011;18201;50.978;7.034;2022-12-15T12:53:19;42.90;;;33.83;;
31596;SDS011;18201;50.978;7.034;2022-12-15T12:53:56;43.13;;;33.78;;
31596;SDS011;18201;50.978;7.034;2022-12-15T12:54:39;39.83;;;32.38;;
31596;SDS011;18201;50.978;7.034;2022-12-15T12:55:20;41.10;;;31.80;;
31596;SDS011;18201;50.978;7.034;2022-12-15T12:55:56;41.55;;;31.17;;
31596;SDS011;18201;50.978;7.034;2022-12-15T12:56:28;40.95;;;30.92;;
31596;SDS011;18201;50.978;7.034;2022-12-15T12:57:02;38.88;;;29.70;;
31596;SDS011;18201;50.978;7.034;2022-12-15T12:59:02;36.92;;;30.05;;
31596;SDS011;18201;50.978;7.034;2022-12-15T12:59:37;39.58;;;29.45;;
31596;SDS011;18201;50.978;7.034;2022-12-15T13:00:13;37.05;;;29.52;;
31596;SDS011;18201;50.978;7.034;2022-12-15T13:01:01;36.50;;;29.15;;
31596;SDS011;18201;50.978;7.034;2022-12-15T13:01:47;39.20;;;29.35;;
31596;SDS011;18201;50.978;7.034;2022-12-15T13:02:39;39.92;;;29.08;;
31596;SDS011;18201;50.978;7.034;2022-12-15T13:03:23;37.65;;;28.65;;
31596;SDS011;18201;50.978;7.034;2022-12-15T13:04:04;37.10;;;28.15;;
31596;SDS011;18201;50.978;7.034;2022-12-15T13:05:29;38.35;;;30.48;;
31596;SDS011;18201;50.978;7.034;2022-12-15T13:06:01;37.92;;;29.50;;
31596;SDS011;18201;50.978;7.034;2022-12-15T13:06:55;36.78;;;29.25;;
31596;SDS011;18201;50.978;7.034;2022-12-15T13:07:30;37.63;;;29.02;;
31596;SDS011;18201;50.978;7.034;2022-12-15T13:09:21;39.03;;;29.73;;
31596;SDS011;18201;50.978;7.034;2022-12-15T13:10:00;40.67;;;31.05;;
31596;SDS011;18201;50.978;7.034;2022-12-15T13:10:43;35.45;;;29.80;;
31596;SDS011;18201;50.978;7.034;2022-12-15T13:12:34;39.45;;;30.10;;
31596;SDS011;18201;50.978;7.034;2022-12-15T13:14:14;40.63;;;29.58;;
31596;SDS011;18201;50.978;7.034;2022-12-15T13:14:49;41.33;;;31.73;;
31596;SDS011;18201;50.978;7.034;2022-12-15T13:15:30;38.00;;;30.23;;
31596;SDS011;18201;50.978;7.034;2022-12-15T13:16:08;37.60;;;29.88;;
31596;SDS011;18201;50.978;7.034;2022-12-15T13:16:42;43.53;;;30.70;;
31596;SDS011;18201;50.978;7.034;2022-12-15T13:17:21;39.55;;;31.98;;
31596;SDS011;18201;50.978;7.034;2022-12-15T13:18:03;39.00;;;31.35;;
31596;SDS011;18201;50.978;7.034;2022-12-15T13:18:56;44.25;;;32.22;;
31596;SDS011;18201;50.978;7.034;2022-12-15T13:20:40;43.45;;;31.58;;
31596;SDS011;18201;50.978;7.034;2022-12-15T13:21:13;41.50;;;30.48;;
31596;SDS011;18201;50.978;7.034;2022-12-15T13:24:16;46.35;;;33.15;;
31596;SDS011;18201;50.978;7.034;2022-12-15T13:24:51;43.80;;;31.90;;
31596;SDS011;18201;50.978;7.034;2022-12-15T13:25:32;44.28;;;33.15;;
31596;SDS011;18201;50.978;7.034;2022-12-15T13:26:12;42.15;;;31.83;;
31596;SDS011;18201;50.978;7.034;2022-12-15T13:26:44;39.83;;;30.73;;
31596;SDS011;18201;50.978;7.034;2022-12-15T13:27:16;40.30;;;29.88;;
31596;SDS011;18201;50.978;7.034;2022-12-15T13:27:49;40.10;;;31.60;;
31596;SDS011;18201;50.978;7.034;2022-12-15T13:28:23;40.33;;;31.40;;
31596;SDS011;18201;50.978;7.034;2022-12-15T13:28:59;42.92;;;31.13;;
31596;SDS011;18201;50.978;7.034;2022-12-15T13:29:31;42.90;;;31.55;;
31596;SDS011;18201;50.978;7.034;2022-12-15T13:30:12;42.40;;;31.73;;
31596;SDS011;18201;50.978;7.034;2022-12-15T13:31:51;45.65;;;33.40;;
31596;SDS011;18201;50.978;7.034;2022-12-15T13:32:28;44.65;;;32.15;;
31596;SDS011;18201;50.978;7.034;2022-12-15T13:33:12;41.97;;;32.55;;
31596;SDS011;18201;50.978;7.034;2022-12-15T13:33:49;45.47;;;33.60;;
31596;SDS011;18201;50.978;7.034;2022-12-15T13:34:25;45.22;;;33.10;;
31596;SDS011;18201;50.978;7.034;2022-12-15T13:35:00;43.97;;;32.15;;
31596;SDS011;18201;50.978;7.034;2022-12-15T13:35:48;46.22;;;33.28;;
31596;SDS011;18201;50.978;7.034;2022-12-15T13:38:16;45.90;;;33.60;;
31596;SDS011;18201;50.978;7.034;2022-12-15T13:38:53;42.28;;;31.52;;
31596;SDS011;18201;50.978;7.034;2022-12-15T13:39:34;45.70;;;33.72;;
31596;SDS011;18201;50.978;7.034;2022-12-15T13:40:28;45.95;;;33.20;;
31596;SDS011;18201;50.978;7.034;2022-12-15T13:41:20;44.67;;;33.33;;
31596;SDS011;18201;50.978;7.034;2022-12-15T13:43:07;45.45;;;33.25;;
31596;SDS011;18201;50.978;7.034;2022-12-15T13:44:06;44.90;;;33.00;;
31596;SDS011;18201;50.978;7.034;2022-12-15T13:44:44;40.80;;;30.58;;
31596;SDS011;18201;50.978;7.034;2022-12-15T13:45:28;42.08;;;32.13;;
31596;SDS011;18201;50.978;7.034;2022-12-15T13:46:09;40.83;;;30.10;;
31596;SDS011;18201;50.978;7.034;2022-12-15T13:46:46;45.40;;;32.78;;
31596;SDS011;18201;50.978;7.034;2022-12-15T13:47:19;39.65;;;32.20;;
31596;SDS011;18201;50.978;7.034;2022-12-15T13:47:52;47.67;;;33.10;;
31596;SDS011;18201;50.978;7.034;2022-12-15T13:48:30;45.90;;;32.80;;
31596;SDS011;18201;50.978;7.034;2022-12-15T13:49:05;44.90;;;31.52;;
31596;SDS011;18201;50.978;7.034;2022-12-15T13:49:45;41.97;;;31.70;;
31596;SDS011;18201;50.978;7.034;2022-12-15T13:50:21;41.78;;;32.38;;
31596;SDS011;18201;50.978;7.034;2022-12-15T13:52:02;45.13;;;30.23;;
31596;SDS011;18201;50.978;7.034;2022-12-15T13:52:41;38.92;;;29.90;;
31596;SDS011;18201;50.978;7.034;2022-12-15T13:53:17;43.58;;;32.28;;
31596;SDS011;18201;50.978;7.034;2022-12-15T13:53:54;44.72;;;33.28;;
31596;SDS011;18201;50.978;7.034;2022-12-15T13:54:29;41.50;;;31.38;;
31596;SDS011;18201;50.978;7.034;2022-12-15T13:55:05;41.85;;;31.05;;
31596;SDS011;18201;50.978;7.034;2022-12-15T13:55:50;42.97;;;31.23;;
31596;SDS011;18201;50.978;7.034;2022-12-15T13:57:15;42.58;;;31.10;;
31596;SDS011;18201;50.978;7.034;2022-12-15T13:57:47;48.78;;;32.83;;
31596;SDS011;18201;50.978;7.034;2022-12-15T13:58:25;44.60;;;33.53;;
31596;SDS011;18201;50.978;7.034;2022-12-15T13:59:01;45.85;;;33.30;;
31596;SDS011;18201;50.978;7.034;2022-12-15T13:59:39;47.88;;;35.53;;
31596;SDS011;18201;50.978;7.034;2022-12-15T14:00:13;46.92;;;33.03;;
31596;SDS011;18201;50.978;7.034;2022-12-15T14:00:48;46.75;;;34.88;;
31596;SDS011;18201;50.978;7.034;2022-12-15T14:01:23;47.33;;;35.05;;
31596;SDS011;18201;50.978;7.034;2022-12-15T14:01:56;46.30;;;35.05;;
31596;SDS011;18201;50.978;7.034;2022-12-15T14:02:27;45.58;;;33.90;;
31596;SDS011;18201;50.978;7.034;2022-12-15T14:03:04;46.97;;;34.42;;
31596;SDS011;18201;50.978;7.034;2022-12-15T14:03:35;46.15;;;34.53;;
31596;SDS011;18201;50.978;7.034;2022-12-15T14:04:09;44.33;;;34.60;;
31596;SDS011;18201;50.978;7.034;2022-12-15T14:04:44;45.65;;;35.17;;
31596;SDS011;18201;50.978;7.034;2022-12-15T14:05:33;49.63;;;35.50;;
31596;SDS011;18201;50.978;7.034;2022-12-15T14:06:10;50.70;;;36.28;;
31596;SDS011;18201;50.978;7.034;2022-12-15T14:06:45;48.25;;;35.42;;
31596;SDS011;18201;50.978;7.034;2022-12-15T14:07:18;47.08;;;35.75;;
31596;SDS011;18201;50.978;7.034;2022-12-15T14:07:55;50.15;;;34.92;;
31596;SDS011;18201;50.978;7.034;2022-12-15T14:08:28;47.38;;;35.78;;
31596;SDS011;18201;50.978;7.034;2022-12-15T14:09:02;48.83;;;35.17;;
31596;SDS011;18201;50.978;7.034;2022-12-15T14:09:35;49.13;;;34.88;;
31596;SDS011;18201;50.978;7.034;2022-12-15T14:10:15;47.97;;;34.25;;
31596;SDS011;18201;50.978;7.034;2022-12-15T14:10:49;51.83;;;34.90;;
31596;SDS011;18201;50.978;7.034;2022-12-15T14:11:23;46.85;;;33.58;;
31596;SDS011;18201;50.978;7.034;2022-12-15T14:11:58;45.40;;;33.92;;
31596;SDS011;18201;50.978;7.034;2022-12-15T14:12:32;47.08;;;33.08;;
31596;SDS011;18201;50.978;7.034;2022-12-15T14:13:05;48.03;;;35.30;;
31596;SDS011;18201;50.978;7.034;2022-12-15T14:13:42;47.15;;;34.03;;
31596;SDS011;18201;50.978;7.034;2022-12-15T14:14:15;45.08;;;33.13;;
31596;SDS011;18201;50.978;7.034;2022-12-15T14:14:49;45.05;;;33.33;;
31596;SDS011;18201;50.978;7.034;2022-12-15T14:15:22;44.38;;;33.50;;
31596;SDS011;18201;50.978;7.034;2022-12-15T14:15:57;47.42;;;35.25;;
31596;SDS011;18201;50.978;7.034;2022-12-15T14:16:33;51.60;;;34.90;;
31596;SDS011;18201;50.978;7.034;2022-12-15T14:17:05;46.08;;;34.47;;
31596;SDS011;18201;50.978;7.034;2022-12-15T14:17:39;45.70;;;34.28;;
31596;SDS011;18201;50.978;7.034;2022-12-15T14:18:20;46.03;;;33.60;;
31596;SDS011;18201;50.978;7.034;2022-12-15T14:19:11;46.85;;;33.72;;
31596;SDS011;18201;50.978;7.034;2022-12-15T14:19:44;47.10;;;33.88;;
31596;SDS011;18201;50.978;7.034;2022-12-15T14:20:18;44.13;;;32.50;;
31596;SDS011;18201;50.978;7.034;2022-12-15T14:20:51;46.58;;;33.78;;
31596;SDS011;18201;50.978;7.034;2022-12-15T14:21:23;46.47;;;33.90;;
31596;SDS011;18201;50.978;7.034;2022-12-15T14:21:56;47.50;;;34.05;;